Time;durP1;ratioP1;P1;durP2;ratioP2;P2;SDS_P1;SDS_P2;PMS_P1;PMS_P2;Temp;Humidity;BMP_temperature;BMP_pressure;BME280_temperature;BME280_humidity;BME280_pressure;Samples;Min_cycle;Max_cycle;Signal;HPM_P1;HPM_P2
2022/10/14 00:00:15;;;;;;;6.22;2.38;;;18.20;99.90;;;;;;5098603;28;20024;-80
2022/10/14 00:02:41;;;;;;;7.30;2.15;;;18.20;99.90;;;;;;5098885;28;20047;-84
2022/10/14 00:05:08;;;;;;;7.07;2.75;;;18.10;99.90;;;;;;5098468;28;20028;-80
2022/10/14 00:07:34;;;;;;;8.52;2.78;;;18.20;99.90;;;;;;5098192;28;20051;-82
2022/10/14 00:10:00;;;;;;;10.50;3.40;;;18.20;99.90;;;;;;5114154;28;20046;-82
2022/10/14 00:12:28;;;;;;;7.05;3.50;;;18.10;99.90;;;;;;5098615;28;20024;-82
2022/10/14 00:14:55;;;;;;;6.90;2.60;;;18.10;99.90;;;;;;5097970;28;20073;-82
2022/10/14 00:17:21;;;;;;;5.10;2.75;;;18.10;99.90;;;;;;5114089;28;20449;-83
2022/10/14 00:19:47;;;;;;;6.15;2.65;;;18.10;99.90;;;;;;5113989;28;20364;-81
2022/10/14 00:22:13;;;;;;;6.68;3.22;;;18.10;99.90;;;;;;5098057;28;20035;-84
2022/10/14 00:24:39;;;;;;;7.38;3.05;;;18.10;99.90;;;;;;5097731;28;20020;-81
2022/10/14 00:27:05;;;;;;;6.63;2.90;;;18.10;99.90;;;;;;5097763;28;20032;-82
2022/10/14 00:29:31;;;;;;;4.30;2.33;;;18.10;99.90;;;;;;5098159;28;20017;-82
2022/10/14 00:31:57;;;;;;;5.80;2.40;;;18.10;99.90;;;;;;5098228;28;20049;-82
2022/10/14 00:34:23;;;;;;;6.13;2.85;;;18.10;99.90;;;;;;5114064;28;20055;-85
2022/10/14 00:36:48;;;;;;;6.15;2.72;;;18.10;99.90;;;;;;5097631;28;20025;-81
2022/10/14 00:39:15;;;;;;;3.22;2.08;;;18.20;99.90;;;;;;5097798;28;20027;-82
2022/10/14 00:41:41;;;;;;;3.70;2.55;;;18.10;99.90;;;;;;5098290;28;20024;-82
2022/10/14 00:44:26;;;;;;;4.72;2.33;;;18.20;99.90;;;;;;5096654;28;20114;-84
2022/10/14 00:46:53;;;;;;;2.92;2.03;;;18.20;99.90;;;;;;5113181;28;20539;-81
2022/10/14 00:49:30;;;;;;;4.80;2.95;;;18.20;99.90;;;;;;5097679;28;20024;-81
2022/10/14 00:52:03;;;;;;;3.85;2.17;;;18.20;99.90;;;;;;5096095;28;20028;-81
2022/10/14 00:54:34;;;;;;;10.45;2.63;;;18.20;99.90;;;;;;5097618;28;20480;-84
2022/10/14 00:57:01;;;;;;;4.60;2.42;;;18.20;99.90;;;;;;5097595;28;20028;-82
2022/10/14 00:59:27;;;;;;;4.90;2.13;;;18.20;99.90;;;;;;5097520;28;20050;-81
2022/10/14 01:01:52;;;;;;;5.57;2.22;;;18.10;99.90;;;;;;5097323;28;20391;-82
2022/10/14 01:04:18;;;;;;;3.30;1.90;;;18.20;99.90;;;;;;5097635;28;20111;-82
2022/10/14 01:06:59;;;;;;;7.88;2.60;;;18.10;99.90;;;;;;5096580;28;20028;-84
2022/10/14 01:09:52;;;;;;;2.88;2.00;;;18.10;99.90;;;;;;5114490;28;20075;-82
2022/10/14 01:12:40;;;;;;;5.55;2.28;;;18.20;99.90;;;;;;5098491;28;20040;-82
2022/10/14 01:15:18;;;;;;;7.70;2.25;;;18.10;99.90;;;;;;5097936;28;20028;-81
2022/10/14 01:17:55;;;;;;;3.97;1.90;;;18.20;99.90;;;;;;5097786;28;20020;-83
2022/10/14 01:20:36;;;;;;;4.40;2.22;;;18.20;99.90;;;;;;5097590;28;20029;-84
2022/10/14 01:23:20;;;;;;;3.45;1.88;;;18.20;99.90;;;;;;5097378;28;20028;-81
2022/10/14 01:26:01;;;;;;;4.18;1.80;;;18.20;99.90;;;;;;5097946;28;20028;-82
2022/10/14 01:29:02;;;;;;;3.85;1.88;;;18.20;99.90;;;;;;5097153;28;20028;-84
2022/10/14 01:31:32;;;;;;;2.85;1.75;;;18.20;99.90;;;;;;5097446;28;20035;-81
2022/10/14 01:34:04;;;;;;;4.00;2.03;;;18.20;99.90;;;;;;5082699;28;20031;-81
2022/10/14 01:37:00;;;;;;;1.92;1.42;;;18.20;99.90;;;;;;5097130;28;20468;-85
2022/10/14 01:39:32;;;;;;;2.83;1.38;;;18.20;99.90;;;;;;5098025;28;20016;-84
2022/10/14 01:42:00;;;;;;;3.55;1.75;;;18.30;99.90;;;;;;5096399;28;20557;-85
2022/10/14 01:44:27;;;;;;;3.17;1.45;;;18.30;99.90;;;;;;5097841;28;20064;-83
2022/10/14 01:46:55;;;;;;;2.58;1.40;;;18.30;99.90;;;;;;5098078;28;20404;-82
2022/10/14 01:49:30;;;;;;;1.02;0.93;;;18.30;99.90;;;;;;5096092;28;20020;-85
2022/10/14 01:52:03;;;;;;;4.32;1.50;;;18.30;99.90;;;;;;5097266;28;20077;-81
2022/10/14 01:54:36;;;;;;;2.88;1.50;;;18.30;99.90;;;;;;5097178;28;20024;-81
2022/10/14 01:57:07;;;;;;;2.28;1.45;;;18.40;99.90;;;;;;5098743;28;20032;-81
2022/10/14 01:59:35;;;;;;;1.30;1.20;;;18.40;99.90;;;;;;5114204;28;20196;-84
2022/10/14 02:02:01;;;;;;;2.08;1.30;;;18.30;99.90;;;;;;5098462;28;20503;-82
2022/10/14 02:04:27;;;;;;;2.45;1.35;;;18.30;99.90;;;;;;5099320;28;20066;-85
2022/10/14 02:07:04;;;;;;;1.40;1.20;;;18.30;99.90;;;;;;5099465;28;20024;-82
2022/10/14 02:10:05;;;;;;;2.63;1.30;;;18.30;99.90;;;;;;5101271;28;20095;-84
2022/10/14 02:13:01;;;;;;;3.17;1.60;;;18.40;99.90;;;;;;5101813;28;20081;-82
2022/10/14 02:15:37;;;;;;;1.90;1.20;;;18.30;99.90;;;;;;5113504;28;20382;-83
2022/10/14 02:18:10;;;;;;;2.97;1.35;;;18.30;99.90;;;;;;5101825;28;20424;-84
2022/10/14 02:20:50;;;;;;;1.80;1.35;;;18.30;99.90;;;;;;5102655;28;20112;-83
2022/10/14 02:23:20;;;;;;;1.20;1.10;;;18.30;99.90;;;;;;5101011;28;20046;-84
2022/10/14 02:25:49;;;;;;;2.92;1.58;;;18.30;99.90;;;;;;5101495;28;20063;-84
2022/10/14 02:28:18;;;;;;;1.42;1.23;;;18.40;99.90;;;;;;5101310;28;20464;-85
2022/10/14 02:30:54;;;;;;;1.48;1.20;;;18.30;99.90;;;;;;5100965;28;20024;-84
2022/10/14 02:33:23;;;;;;;1.50;1.30;;;18.40;99.90;;;;;;5100409;28;20020;-85
2022/10/14 02:35:50;;;;;;;3.00;1.17;;;18.40;99.90;;;;;;5104641;28;20028;-84
2022/10/14 02:38:19;;;;;;;1.73;1.35;;;18.40;99.90;;;;;;5118203;28;20589;-85
2022/10/14 02:40:49;;;;;;;3.22;1.40;;;18.40;99.90;;;;;;5103382;28;20027;-83
2022/10/14 02:43:15;;;;;;;;;;;18.40;99.90;;;;;;5102674;28;20024;-83
2022/10/14 02:45:42;;;;;;;2.78;1.45;;;18.40;99.90;;;;;;5102745;28;19961;-83
2022/10/14 02:48:09;;;;;;;2.05;1.45;;;18.40;99.90;;;;;;5102616;28;20021;-83
2022/10/14 02:50:35;;;;;;;3.42;1.88;;;18.30;99.90;;;;;;5100889;28;20019;-86
2022/10/14 02:53:01;;;;;;;1.90;1.20;;;18.30;99.90;;;;;;5100465;28;20023;-82
2022/10/14 02:55:27;;;;;;;3.08;1.38;;;18.30;99.90;;;;;;5100210;28;20024;-85
2022/10/14 02:57:53;;;;;;;1.30;1.05;;;18.30;99.90;;;;;;5101239;28;20024;-84
2022/10/14 03:00:20;;;;;;;2.90;1.30;;;18.30;99.90;;;;;;5116657;28;20395;-84
2022/10/14 03:02:46;;;;;;;2.95;1.30;;;18.30;99.90;;;;;;5098818;28;20028;-84
2022/10/14 03:05:11;;;;;;;2.90;1.45;;;18.30;99.90;;;;;;5099599;28;20028;-85
2022/10/14 03:07:37;;;;;;;1.85;1.02;;;18.30;99.90;;;;;;5099243;28;20024;-84
2022/10/14 03:10:03;;;;;;;1.92;1.20;;;18.30;99.90;;;;;;5116857;28;20620;-85
2022/10/14 03:12:29;;;;;;;2.13;1.35;;;18.20;99.90;;;;;;5101697;28;20123;-85
2022/10/14 03:14:55;;;;;;;1.40;1.20;;;18.20;99.90;;;;;;5099151;28;20056;-82
2022/10/14 03:17:22;;;;;;;1.42;1.13;;;18.20;99.90;;;;;;5100100;28;20106;-85
2022/10/14 03:19:47;;;;;;;2.20;1.15;;;18.20;99.90;;;;;;5100575;28;20081;-87
2022/10/14 03:22:13;;;;;;;4.03;1.17;;;18.20;99.90;;;;;;5100222;28;20028;-85
2022/10/14 03:24:39;;;;;;;1.80;1.10;;;18.20;99.90;;;;;;5100754;28;20024;-85
2022/10/14 03:27:05;;;;;;;4.22;1.42;;;18.20;99.90;;;;;;5101912;28;20024;-85
2022/10/14 03:29:30;;;;;;;1.92;1.10;;;18.20;99.90;;;;;;5101761;28;20016;-82
2022/10/14 03:31:56;;;;;;;3.80;1.17;;;18.20;99.90;;;;;;5100132;28;20099;-83
2022/10/14 03:34:22;;;;;;;1.83;1.20;;;18.20;99.90;;;;;;5100225;28;20144;-85
2022/10/14 03:36:48;;;;;;;2.72;1.33;;;18.30;99.90;;;;;;5099319;28;20064;-84
2022/10/14 03:39:14;;;;;;;1.33;1.20;;;18.30;99.90;;;;;;5101818;28;20027;-83
2022/10/14 03:41:39;;;;;;;3.15;1.30;;;18.30;99.90;;;;;;5102651;28;20514;-84
2022/10/14 03:44:05;;;;;;;1.50;1.10;;;18.20;99.90;;;;;;5101004;28;20031;-83
2022/10/14 03:46:31;;;;;;;1.48;1.35;;;18.20;99.90;;;;;;5102234;28;20050;-81
2022/10/14 03:48:57;;;;;;;3.53;1.40;;;18.20;99.90;;;;;;5102962;28;20024;-83
2022/10/14 03:51:23;;;;;;;2.05;1.27;;;18.10;99.90;;;;;;5097412;28;20049;-84
2022/10/14 03:53:48;;;;;;;2.03;1.30;;;18.00;99.90;;;;;;5099921;28;20020;-85
2022/10/14 03:56:14;;;;;;;1.65;1.30;;;17.80;99.90;;;;;;5100790;28;20052;-84
2022/10/14 03:58:41;;;;;;;6.43;2.00;;;17.60;99.90;;;;;;5101412;28;20022;-86
2022/10/14 04:01:07;;;;;;;1.52;1.40;;;17.50;99.90;;;;;;5099325;28;20081;-85
2022/10/14 04:03:32;;;;;;;1.50;1.40;;;17.40;99.90;;;;;;5114613;28;20020;-84
2022/10/14 04:05:58;;;;;;;2.92;1.25;;;17.40;99.90;;;;;;5115585;28;20024;-84
2022/10/14 04:08:24;;;;;;;4.13;1.52;;;17.30;99.90;;;;;;5115376;28;20028;-80
2022/10/14 04:10:54;;;;;;;1.42;1.30;;;17.20;99.90;;;;;;5099345;28;20040;-82
2022/10/14 04:13:20;;;;;;;2.85;1.30;;;17.20;99.90;;;;;;5099586;28;20020;-82
2022/10/14 04:15:46;;;;;;;1.70;1.60;;;17.20;99.90;;;;;;5098803;28;20094;-82
2022/10/14 04:18:12;;;;;;;1.38;1.15;;;17.10;99.90;;;;;;5098422;28;20762;-81
2022/10/14 04:20:39;;;;;;;1.27;1.10;;;17.10;99.90;;;;;;5097918;28;20032;-83
2022/10/14 04:23:05;;;;;;;1.60;1.10;;;17.10;99.90;;;;;;5097983;28;20066;-79
2022/10/14 04:25:30;;;;;;;1.65;1.27;;;17.10;99.90;;;;;;5113098;28;20028;-85
2022/10/14 04:27:56;;;;;;;2.35;1.45;;;17.10;99.90;;;;;;5096518;28;20058;-84
2022/10/14 04:30:22;;;;;;;2.13;1.40;;;17.00;99.90;;;;;;5098102;28;20049;-84
2022/10/14 04:32:48;;;;;;;1.77;1.48;;;17.00;99.90;;;;;;5097948;28;20384;-85
2022/10/14 04:35:14;;;;;;;3.28;1.90;;;17.00;99.90;;;;;;5113195;28;20052;-86
2022/10/14 04:37:39;;;;;;;4.82;1.50;;;17.00;99.90;;;;;;5113965;28;20028;-81
2022/10/14 04:40:06;;;;;;;2.90;1.50;;;17.00;99.90;;;;;;5096858;28;20028;-83
2022/10/14 04:42:31;;;;;;;2.85;1.38;;;17.00;99.90;;;;;;5097752;28;20026;-84
2022/10/14 04:44:57;;;;;;;2.90;1.60;;;17.00;99.90;;;;;;5096293;28;20052;-84
2022/10/14 04:47:23;;;;;;;3.60;1.50;;;17.00;99.90;;;;;;5098422;28;20078;-83
2022/10/14 04:49:49;;;;;;;1.80;1.50;;;17.00;99.90;;;;;;5096262;28;20042;-83
2022/10/14 04:52:15;;;;;;;2.35;1.50;;;17.00;99.90;;;;;;5097402;28;20017;-80
2022/10/14 04:54:40;;;;;;;2.13;1.40;;;17.00;99.90;;;;;;5095975;28;20073;-82
2022/10/14 04:57:06;;;;;;;5.15;1.50;;;17.00;99.90;;;;;;5097431;28;20387;-80
2022/10/14 04:59:33;;;;;;;2.58;1.70;;;17.00;99.90;;;;;;5097168;28;20020;-81
2022/10/14 05:01:58;;;;;;;4.55;1.60;;;16.90;99.90;;;;;;5097423;28;20162;-81
2022/10/14 05:04:24;;;;;;;2.88;1.50;;;17.00;99.90;;;;;;5095889;28;20056;-81
2022/10/14 05:06:50;;;;;;;2.25;1.58;;;17.00;99.90;;;;;;5097233;28;20020;-81
2022/10/14 05:09:16;;;;;;;9.07;2.20;;;16.90;99.90;;;;;;5097119;28;20024;-80
2022/10/14 05:11:42;;;;;;;3.65;1.80;;;16.90;99.90;;;;;;5112795;28;20044;-81
2022/10/14 05:14:08;;;;;;;4.15;1.67;;;16.90;99.90;;;;;;5095589;28;20085;-81
2022/10/14 05:16:33;;;;;;;1.67;1.38;;;17.00;99.90;;;;;;5095903;28;20446;-81
2022/10/14 05:18:59;;;;;;;3.95;1.70;;;17.00;99.90;;;;;;5097200;28;20024;-80
2022/10/14 05:21:25;;;;;;;2.30;1.52;;;17.00;99.90;;;;;;5112599;28;20181;-81
2022/10/14 05:23:51;;;;;;;2.92;1.50;;;17.00;99.90;;;;;;5096996;28;20041;-81
2022/10/14 05:26:17;;;;;;;3.25;1.67;;;17.00;99.90;;;;;;5112761;28;20488;-79
2022/10/14 05:28:43;;;;;;;5.43;1.80;;;17.00;99.90;;;;;;5112737;28;20020;-80
2022/10/14 05:31:09;;;;;;;2.28;1.60;;;17.00;99.90;;;;;;5097333;28;20016;-80
2022/10/14 05:33:35;;;;;;;2.55;1.90;;;17.00;99.90;;;;;;5097350;28;20079;-81
2022/10/14 05:36:01;;;;;;;5.28;1.98;;;17.10;99.90;;;;;;5097008;28;20020;-83
2022/10/14 05:38:31;;;;;;;2.72;1.85;;;17.10;99.90;;;;;;5099040;28;20148;-81
2022/10/14 05:40:57;;;;;;;6.88;3.00;;;17.10;99.90;;;;;;5100419;28;20039;-81
2022/10/14 05:43:23;;;;;;;2.72;2.22;;;17.10;99.90;;;;;;5100101;28;20028;-79
2022/10/14 05:45:50;;;;;;;3.60;2.25;;;17.10;99.90;;;;;;5100982;28;20499;-81
2022/10/14 05:48:16;;;;;;;4.63;1.98;;;17.10;99.90;;;;;;5100947;28;20042;-82
2022/10/14 05:50:42;;;;;;;4.50;2.20;;;17.10;99.90;;;;;;5098474;28;20020;-83
2022/10/14 05:53:09;;;;;;;4.03;1.80;;;17.10;99.90;;;;;;5101053;28;20031;-82
2022/10/14 05:55:35;;;;;;;2.72;1.90;;;17.10;99.90;;;;;;5101518;28;20032;-81
2022/10/14 05:58:00;;;;;;;6.25;2.25;;;17.10;99.90;;;;;;5099683;28;20028;-81
2022/10/14 06:00:27;;;;;;;6.03;2.33;;;17.10;99.90;;;;;;5101947;28;20024;-82
2022/10/14 06:02:52;;;;;;;6.15;1.92;;;17.10;99.90;;;;;;5100968;28;20099;-82
2022/10/14 06:05:18;;;;;;;2.95;1.98;;;17.10;99.90;;;;;;5100846;28;20062;-82
2022/10/14 06:07:44;;;;;;;9.50;2.92;;;17.10;99.90;;;;;;5100807;28;20075;-82
2022/10/14 06:10:10;;;;;;;3.58;2.17;;;17.20;99.90;;;;;;5100007;28;20084;-84
2022/10/14 06:12:37;;;;;;;4.15;2.08;;;17.10;99.90;;;;;;5100891;28;20024;-83
2022/10/14 06:15:03;;;;;;;4.25;2.45;;;17.10;99.90;;;;;;5116597;28;20097;-80
2022/10/14 06:17:28;;;;;;;2.95;2.17;;;17.10;99.90;;;;;;5100734;28;20399;-83
2022/10/14 06:19:54;;;;;;;7.00;3.15;;;17.10;99.90;;;;;;5100937;28;20050;-85
2022/10/14 06:22:20;;;;;;;6.95;2.25;;;17.10;99.90;;;;;;5103707;28;20027;-84
2022/10/14 06:24:46;;;;;;;5.10;1.95;;;17.10;99.90;;;;;;5091724;28;20085;-83
2022/10/14 06:27:12;;;;;;;3.90;2.17;;;17.10;99.90;;;;;;5084941;28;20085;-84
2022/10/14 06:29:37;;;;;;;2.97;1.80;;;17.10;99.90;;;;;;5109618;28;20070;-85
2022/10/14 06:32:05;;;;;;;2.85;1.98;;;17.10;99.90;;;;;;5099546;28;20020;-84
2022/10/14 06:34:31;;;;;;;1.95;1.50;;;17.10;99.90;;;;;;5106003;28;20563;-84
2022/10/14 06:36:58;;;;;;;3.63;1.80;;;17.20;99.90;;;;;;5100744;28;20024;-83
2022/10/14 06:39:24;;;;;;;4.88;1.83;;;17.20;99.90;;;;;;5111947;28;20066;-84
2022/10/14 06:41:50;;;;;;;3.40;1.83;;;17.20;99.90;;;;;;5099104;28;20024;-85
2022/10/14 06:44:15;;;;;;;1.77;1.50;;;17.30;99.90;;;;;;5124147;27;20111;-85
2022/10/14 06:46:42;;;;;;;4.03;2.03;;;17.30;99.90;;;;;;5110244;28;20024;-86
2022/10/14 06:49:08;;;;;;;6.20;2.10;;;17.30;99.90;;;;;;5117532;28;20016;-85
2022/10/14 06:51:34;;;;;;;9.77;2.05;;;17.30;99.90;;;;;;5086012;28;20047;-85
2022/10/14 06:54:00;;;;;;;4.05;2.03;;;17.40;99.90;;;;;;5116858;28;20008;-83
2022/10/14 06:56:26;;;;;;;5.35;2.45;;;17.40;99.90;;;;;;5111990;28;20440;-85
2022/10/14 06:58:55;;;;;;;6.63;1.90;;;17.40;99.90;;;;;;5115642;28;20084;-85
2022/10/14 07:01:22;;;;;;;8.75;2.00;;;17.50;99.90;;;;;;5113834;28;20020;-85
2022/10/14 07:03:48;;;;;;;5.57;1.88;;;17.50;99.90;;;;;;5115735;28;20015;-85
2022/10/14 07:06:14;;;;;;;4.95;1.95;;;17.50;99.90;;;;;;5111006;28;20073;-83
2022/10/14 07:08:41;;;;;;;6.10;1.80;;;17.50;99.90;;;;;;5115566;28;20023;-84
2022/10/14 07:11:06;;;;;;;7.22;2.08;;;17.50;99.90;;;;;;5115008;28;20048;-86
2022/10/14 07:13:36;;;;;;;4.45;2.13;;;17.60;99.90;;;;;;5111959;28;20019;-83
2022/10/14 07:16:03;;;;;;;5.95;1.92;;;17.60;99.90;;;;;;5114978;28;20391;-86
2022/10/14 07:18:29;;;;;;;9.82;2.13;;;17.60;99.90;;;;;;5115968;28;20024;-82
2022/10/14 07:20:55;;;;;;;5.65;2.40;;;17.60;99.90;;;;;;5130420;27;20035;-86
2022/10/14 07:23:21;;;;;;;6.28;1.88;;;17.60;99.90;;;;;;5108613;28;20024;-83
2022/10/14 07:25:47;;;;;;;2.83;1.90;;;17.60;99.90;;;;;;5109669;28;20068;-84
2022/10/14 07:28:13;;;;;;;5.88;2.13;;;17.70;99.90;;;;;;5098526;28;20027;-83
2022/10/14 07:30:39;;;;;;;4.30;2.33;;;17.70;99.90;;;;;;5120140;27;20037;-84
2022/10/14 07:33:05;;;;;;;6.25;2.55;;;17.70;99.90;;;;;;5102547;28;20027;-83
2022/10/14 07:35:31;;;;;;;3.70;2.50;;;17.80;99.90;;;;;;5105023;28;20035;-87
2022/10/14 07:37:58;;;;;;;4.72;2.13;;;17.70;99.90;;;;;;5114390;28;20024;-82
2022/10/14 07:40:24;;;;;;;3.65;2.17;;;17.80;99.90;;;;;;5106680;28;20403;-85
2022/10/14 07:42:50;;;;;;;4.55;2.55;;;17.80;99.90;;;;;;5096471;28;20025;-86
2022/10/14 07:45:17;;;;;;;5.38;2.65;;;17.80;99.90;;;;;;5098530;28;20433;-85
2022/10/14 07:47:45;;;;;;;5.45;2.92;;;17.80;99.90;;;;;;5103677;28;20020;-81
2022/10/14 07:50:11;;;;;;;4.82;2.40;;;17.90;99.90;;;;;;5104901;28;20024;-84
2022/10/14 07:52:37;;;;;;;4.22;2.50;;;17.90;99.90;;;;;;5098216;28;20552;-85
2022/10/14 07:55:04;;;;;;;5.00;2.28;;;17.90;99.90;;;;;;5101682;28;20448;-85
2022/10/14 07:57:30;;;;;;;4.70;2.13;;;17.90;99.90;;;;;;5112833;28;20055;-84
2022/10/14 07:59:56;;;;;;;5.28;2.15;;;17.90;99.90;;;;;;5113025;28;20047;-83
2022/10/14 08:02:22;;;;;;;12.95;2.33;;;17.90;99.90;;;;;;5100342;28;20023;-85
2022/10/14 08:04:52;;;;;;;4.68;2.08;;;18.00;99.90;;;;;;5097576;28;20027;-85
2022/10/14 08:07:18;;;;;;;5.00;1.80;;;18.00;99.90;;;;;;5097731;28;20030;-84
2022/10/14 08:09:44;;;;;;;3.08;2.00;;;18.00;99.90;;;;;;5098032;28;20040;-85
2022/10/14 08:12:09;;;;;;;6.57;2.08;;;18.00;99.90;;;;;;5112795;28;20034;-84
2022/10/14 08:14:35;;;;;;;3.13;1.70;;;18.00;99.90;;;;;;5113076;28;20496;-84
2022/10/14 08:17:01;;;;;;;4.78;1.70;;;18.00;99.90;;;;;;5096581;28;20064;-86
2022/10/14 08:19:27;;;;;;;4.13;1.98;;;18.10;99.90;;;;;;5097636;28;20047;-83
2022/10/14 08:21:52;;;;;;;2.42;1.73;;;18.00;99.90;;;;;;5097661;28;20024;-85
2022/10/14 08:24:18;;;;;;;3.95;2.00;;;18.10;99.90;;;;;;5099444;28;20050;-85
2022/10/14 08:26:53;;;;;;;4.13;1.42;;;18.20;99.90;;;;;;5101619;28;20065;-84
2022/10/14 08:29:21;;;;;;;3.40;2.25;;;18.10;99.90;;;;;;5103885;28;20027;-84
2022/10/14 08:31:48;;;;;;;5.20;1.85;;;18.20;99.90;;;;;;5105471;28;20081;-84
2022/10/14 08:34:14;;;;;;;3.33;1.80;;;18.20;99.90;;;;;;5097853;28;20073;-85
2022/10/14 08:36:40;;;;;;;3.88;1.73;;;18.30;99.90;;;;;;5104819;28;20028;-84
2022/10/14 08:39:07;;;;;;;5.30;1.67;;;18.30;99.90;;;;;;5118992;27;20024;-84
2022/10/14 08:41:51;;;;;;;7.15;2.72;;;18.30;99.90;;;;;;5114824;27;20039;-85
2022/10/14 08:44:40;;;;;;;3.53;1.60;;;18.40;99.90;;;;;;5102871;28;20028;-84
2022/10/14 08:47:15;;;;;;;3.55;1.80;;;18.30;99.90;;;;;;5109432;28;21437;-83
2022/10/14 08:50:01;;;;;;;3.05;1.88;;;18.40;99.90;;;;;;5097241;28;20095;-82
2022/10/14 08:53:08;;;;;;;2.53;1.63;;;18.40;99.90;;;;;;5114555;28;20020;-81
2022/10/14 08:55:47;;;;;;;4.95;1.67;;;18.50;99.90;;;;;;5091141;28;20027;-81
2022/10/14 08:58:37;;;;;;;6.03;1.85;;;18.60;99.90;;;;;;5099960;28;20039;-82
2022/10/14 09:01:24;;;;;;;7.47;2.17;;;18.80;99.90;;;;;;5114872;28;20028;-84
2022/10/14 09:03:55;;;;;;;3.28;1.65;;;19.00;99.90;;;;;;5096732;28;20630;-85
2022/10/14 09:06:37;;;;;;;4.25;2.70;;;19.00;99.90;;;;;;5097157;28;20028;-82
2022/10/14 09:09:25;;;;;;;3.67;1.73;;;19.00;99.90;;;;;;5102491;28;20024;-82
2022/10/14 09:11:56;;;;;;;3.15;1.60;;;19.00;99.90;;;;;;5095688;28;20032;-81
2022/10/14 09:14:29;;;;;;;5.35;2.55;;;19.00;99.90;;;;;;5106415;28;20024;-81
2022/10/14 09:17:10;;;;;;;3.28;1.77;;;19.00;99.90;;;;;;5109459;28;20020;-81
2022/10/14 09:19:45;;;;;;;2.22;1.65;;;19.00;99.90;;;;;;5126284;27;20031;-82
2022/10/14 09:22:13;;;;;;;7.22;1.67;;;19.10;99.90;;;;;;5110160;27;20035;-81
2022/10/14 09:24:40;;;;;;;2.28;1.75;;;19.20;99.90;;;;;;5100652;28;20380;-80
2022/10/14 09:27:16;;;;;;;2.70;1.30;;;19.30;99.90;;;;;;5116436;28;20038;-82
2022/10/14 09:29:56;;;;;;;5.13;1.38;;;19.30;99.90;;;;;;5100300;28;20032;-81
2022/10/14 09:32:39;;;;;;;8.82;2.85;;;19.40;99.90;;;;;;5100707;28;20438;-80
2022/10/14 09:35:23;;;;;;;4.78;1.55;;;19.30;99.90;;;;;;5099536;28;20468;-81
2022/10/14 09:37:49;;;;;;;4.90;1.70;;;19.30;99.90;;;;;;5099524;28;20081;-81
2022/10/14 09:40:30;;;;;;;5.78;2.15;;;19.30;99.90;;;;;;5100291;28;20377;-80
2022/10/14 09:43:08;;;;;;;6.80;1.80;;;19.40;99.90;;;;;;5100251;28;20032;-83
2022/10/14 09:45:53;;;;;;;5.25;1.50;;;19.40;99.90;;;;;;5145870;27;20048;-79
2022/10/14 09:48:33;;;;;;;4.05;1.40;;;19.40;99.90;;;;;;5100764;28;20430;-80
2022/10/14 09:51:07;;;;;;;2.15;1.40;;;19.50;99.90;;;;;;5099791;28;20020;-81
2022/10/14 09:53:39;;;;;;;2.75;1.27;;;19.50;99.90;;;;;;5115497;28;20020;-81
2022/10/14 09:56:07;;;;;;;5.63;1.80;;;19.60;99.90;;;;;;5100003;28;20056;-81
2022/10/14 09:58:54;;;;;;;6.38;2.58;;;19.70;99.90;;;;;;5115341;28;20069;-80
2022/10/14 10:01:37;;;;;;;2.75;1.65;;;19.90;99.90;;;;;;5115386;28;20101;-81
2022/10/14 10:04:30;;;;;;;4.20;1.20;;;20.00;99.90;;;;;;5099543;28;20081;-81
2022/10/14 10:06:57;;;;;;;4.40;1.38;;;19.90;99.90;;;;;;5098559;28;20622;-81
2022/10/14 10:09:23;;;;;;;3.13;1.42;;;20.00;99.90;;;;;;5099980;28;20020;-82
2022/10/14 10:11:49;;;;;;;2.85;1.67;;;19.90;99.90;;;;;;5099302;28;20060;-78
2022/10/14 10:14:35;;;;;;;2.67;1.60;;;19.90;99.90;;;;;;5099331;28;20034;-81
2022/10/14 10:17:07;;;;;;;4.80;1.80;;;19.90;99.90;;;;;;5098290;28;20035;-81
2022/10/14 10:19:45;;;;;;;2.42;1.40;;;20.00;99.90;;;;;;5088403;28;20080;-79
2022/10/14 10:22:32;;;;;;;3.00;1.42;;;20.00;99.90;;;;;;5099485;28;20024;-80
2022/10/14 10:25:02;;;;;;;5.15;1.50;;;20.00;99.90;;;;;;5099697;28;20024;-80
2022/10/14 10:27:30;;;;;;;5.28;1.70;;;20.00;99.90;;;;;;5097940;28;20512;-83
2022/10/14 10:30:04;;;;;;;1.90;1.40;;;20.00;99.90;;;;;;5099644;28;20537;-81
2022/10/14 10:33:00;;;;;;;2.72;1.60;;;19.90;99.90;;;;;;5099496;28;20020;-82
2022/10/14 10:35:38;;;;;;;3.63;2.20;;;19.90;99.90;;;;;;5111879;27;20025;-83
2022/10/14 10:38:10;;;;;;;6.22;2.25;;;20.00;99.90;;;;;;5122649;27;20028;-83
2022/10/14 10:41:01;;;;;;;5.57;1.80;;;20.20;99.90;;;;;;5091390;28;20400;-82
2022/10/14 10:44:05;;;;;;;5.15;1.70;;;20.30;99.90;;;;;;5086561;27;20032;-84
2022/10/14 10:47:04;;;;;;;3.58;1.80;;;20.60;99.90;;;;;;5101893;28;20042;-83
2022/10/14 10:49:30;;;;;;;4.13;1.55;;;20.70;99.90;;;;;;5102837;28;20086;-82
2022/10/14 10:52:11;;;;;;;4.88;1.70;;;20.80;99.90;;;;;;5098201;28;20020;-83
2022/10/14 10:54:46;;;;;;;6.95;1.52;;;20.80;99.90;;;;;;5099412;28;20023;-81
2022/10/14 10:57:37;;;;;;;2.78;1.40;;;20.80;99.90;;;;;;5090634;28;20026;-83
2022/10/14 11:00:15;;;;;;;5.05;1.60;;;20.80;99.90;;;;;;5099019;28;20078;-84
2022/10/14 11:03:12;;;;;;;3.33;1.40;;;20.90;99.90;;;;;;5098931;28;20107;-81
2022/10/14 11:06:03;;;;;;;3.40;1.15;;;21.10;99.90;;;;;;5096996;28;20028;-83
2022/10/14 11:14:26;;;;;;;5.72;1.60;;;21.40;99.90;;;;;;5097218;28;20065;-83
2022/10/14 11:17:08;;;;;;;4.43;1.33;;;21.50;99.90;;;;;;5114840;28;20024;-81
2022/10/14 11:19:48;;;;;;;1.60;1.00;;;21.50;99.90;;;;;;5086090;28;20120;-81
2022/10/14 11:22:23;;;;;;;2.83;1.33;;;21.50;99.90;;;;;;5114078;28;20028;-84
2022/10/14 11:24:59;;;;;;;2.78;1.15;;;21.70;99.90;;;;;;5098367;28;20034;-84
2022/10/14 11:27:41;;;;;;;2.05;1.00;;;21.70;99.90;;;;;;5125661;27;20113;-85
2022/10/14 11:30:36;;;;;;;5.32;1.27;;;21.60;99.90;;;;;;5113965;28;20125;-80
2022/10/14 11:33:36;;;;;;;4.07;1.10;;;21.70;99.90;;;;;;5106909;28;20122;-80
2022/10/14 11:36:20;;;;;;;3.38;1.30;;;21.80;99.90;;;;;;5097155;28;20035;-82
2022/10/14 11:39:22;;;;;;;4.47;1.30;;;21.90;99.90;;;;;;5098542;28;20023;-83
2022/10/14 11:41:58;;;;;;;2.08;1.20;;;21.90;99.90;;;;;;5115986;27;20492;-81
2022/10/14 11:44:37;;;;;;;6.75;1.33;;;22.00;99.90;;;;;;5104931;28;20490;-82
2022/10/14 11:47:23;;;;;;;2.70;1.23;;;22.10;99.90;;;;;;5113974;28;20028;-80
2022/10/14 11:50:10;;;;;;;5.35;1.40;;;22.10;99.90;;;;;;5113193;28;20024;-79
2022/10/14 11:53:00;;;;;;;4.25;0.90;;;22.10;99.90;;;;;;5097573;28;20043;-83
2022/10/14 11:55:33;;;;;;;3.05;1.08;;;22.00;99.90;;;;;;5119699;27;20026;-81
2022/10/14 11:58:12;;;;;;;2.42;1.10;;;22.00;99.90;;;;;;5106699;28;20055;-81
2022/10/14 12:00:41;;;;;;;1.85;1.00;;;21.90;99.90;;;;;;5100867;28;20028;-81
2022/10/14 12:03:31;;;;;;;2.70;1.10;;;21.90;99.90;;;;;;5104927;27;20024;-83
2022/10/14 12:06:18;;;;;;;3.85;1.27;;;22.10;99.90;;;;;;5116067;27;20055;-84
2022/10/14 12:08:59;;;;;;;2.85;1.25;;;22.10;99.90;;;;;;5097835;28;20077;-82
2022/10/14 12:11:41;;;;;;;3.28;1.05;;;22.00;99.90;;;;;;5136371;27;20074;-82
2022/10/14 12:14:32;;;;;;;2.88;1.20;;;22.00;99.90;;;;;;5094226;28;20412;-82
2022/10/14 12:16:59;;;;;;;2.08;1.20;;;22.10;99.90;;;;;;5109492;28;20042;-84
2022/10/14 12:19:27;;;;;;;11.73;1.48;;;22.20;99.90;;;;;;5113381;28;20111;-82
2022/10/14 12:22:18;;;;;;;2.38;1.17;;;22.30;99.90;;;;;;5111952;28;20020;-82
2022/10/14 12:25:04;;;;;;;1.42;1.10;;;22.40;99.90;;;;;;5084658;28;20029;-83
2022/10/14 12:27:30;;;;;;;2.08;1.20;;;22.50;99.90;;;;;;5110703;27;20500;-83
2022/10/14 12:29:57;;;;;;;2.05;1.02;;;22.60;99.90;;;;;;5102669;28;20451;-83
2022/10/14 12:32:29;;;;;;;1.67;1.00;;;22.80;99.90;;;;;;5113004;28;20480;-83
2022/10/14 12:34:57;;;;;;;4.32;1.33;;;22.80;99.90;;;;;;5097595;28;20024;-84
2022/10/14 12:37:36;;;;;;;3.90;1.20;;;22.70;99.90;;;;;;5097020;28;20103;-80
2022/10/14 12:40:02;;;;;;;2.70;1.08;;;22.90;99.90;;;;;;5096142;28;20483;-83
2022/10/14 12:42:43;;;;;;;3.17;1.00;;;23.00;99.90;;;;;;5096977;28;20028;-81
2022/10/14 12:45:22;;;;;;;3.38;1.23;;;23.00;99.90;;;;;;5096220;28;20016;-82
2022/10/14 12:48:03;;;;;;;2.75;1.20;;;22.80;99.90;;;;;;5112457;28;20871;-82
2022/10/14 12:50:34;;;;;;;6.20;1.00;;;22.60;99.90;;;;;;5096763;28;20027;-84
2022/10/14 12:53:05;;;;;;;2.25;1.15;;;22.60;99.90;;;;;;5097111;28;20020;-84
2022/10/14 12:55:37;;;;;;;2.70;1.33;;;22.50;99.90;;;;;;5097042;28;20392;-83
2022/10/14 12:58:05;;;;;;;3.17;1.45;;;22.40;99.90;;;;;;5089847;28;20039;-84
2022/10/14 13:00:36;;;;;;;1.58;0.98;;;22.20;99.90;;;;;;5094376;28;20047;-83
2022/10/14 13:03:04;;;;;;;2.63;1.00;;;22.00;99.90;;;;;;5100281;28;20026;-83
2022/10/14 13:05:38;;;;;;;1.45;1.08;;;22.00;99.90;;;;;;5096548;28;20020;-84
2022/10/14 13:08:19;;;;;;;4.88;1.10;;;21.90;99.90;;;;;;5096696;28;20055;-84
2022/10/14 13:11:08;;;;;;;2.58;1.10;;;21.80;99.90;;;;;;5100325;28;20090;-84
2022/10/14 13:13:40;;;;;;;5.57;1.20;;;21.70;99.90;;;;;;5096022;28;20027;-83
2022/10/14 13:16:24;;;;;;;5.63;1.35;;;21.40;99.90;;;;;;5097279;28;20028;-83